Time;durP1;ratioP1;P1;durP2;ratioP2;P2;SDS_P1;SDS_P2;PMS_P1;PMS_P2;Temp;Humidity;BMP_temperature;BMP_pressure;BME280_temperature;BME280_humidity;BME280_pressure;Samples;Min_cycle;Max_cycle;Signal;HPM_P1;HPM_P2
2022/08/20 00:01:55;;;;;;;19.30;13.58;;;;;;;21.99;73.69;99795.83;1989503;88;27712;-68
2022/08/20 00:04:57;;;;;;;20.65;12.98;;;;;;;21.97;73.75;99802.82;1987399;89;28703;-68
2022/08/20 00:08:02;;;;;;;17.30;12.55;;;;;;;21.97;73.77;99795.13;1988145;88;31011;-69
2022/08/20 00:11:08;;;;;;;17.23;12.37;;;;;;;21.95;73.71;99793.07;1987946;88;33035;-67
2022/08/20 00:14:11;;;;;;;13.80;11.03;;;;;;;21.95;73.74;99793.07;1965757;89;29276;-68
2022/08/20 00:17:13;;;;;;;19.48;10.38;;;;;;;21.94;73.74;99792.23;1988067;89;27851;-68
2022/08/20 00:20:15;;;;;;;17.92;10.60;;;;;;;21.92;73.67;99787.97;1988065;89;28690;-69
2022/08/20 00:23:18;;;;;;;19.40;10.78;;;;;;;21.91;73.65;99804.83;1988087;89;31025;-69
2022/08/20 00:26:21;;;;;;;17.05;10.93;;;;;;;21.91;73.70;99799.37;1987858;89;33759;-69
2022/08/20 00:29:23;;;;;;;16.48;10.53;;;;;;;21.89;73.69;99797.31;1987901;89;29199;-71
2022/08/20 00:32:25;;;;;;;17.75;10.38;;;;;;;21.88;73.67;99813.32;1987957;89;27714;-70
2022/08/20 00:35:30;;;;;;;17.20;9.90;;;;;;;21.87;73.68;99807.52;1987697;89;29425;-71
2022/08/20 00:38:39;;;;;;;15.25;9.95;;;;;;;21.86;73.64;99803.08;1990617;89;31123;-71
2022/08/20 00:41:39;;;;;;;12.03;8.83;;;;;;;21.84;73.73;99796.96;1987922;89;33133;-69
2022/08/20 00:44:46;;;;;;;12.13;9.83;;;;;;;21.79;73.75;99791.12;1988154;89;29314;-69
2022/08/20 00:47:48;;;;;;;16.55;9.95;;;;;;;21.74;73.71;99799.80;1988076;89;27687;-70
2022/08/20 00:50:50;;;;;;;15.28;9.08;;;;;;;21.68;73.72;99812.17;1987995;89;28598;-69
2022/08/20 00:53:58;;;;;;;15.65;9.23;;;;;;;21.64;73.79;99815.39;1965430;89;31299;-69
2022/08/20 00:57:11;;;;;;;14.55;10.63;;;;;;;21.57;73.78;99812.95;1969604;89;34284;-69
2022/08/20 01:00:18;;;;;;;18.23;11.38;;;;;;;21.50;74.06;99808.64;1987833;89;29350;-69
2022/08/20 01:03:20;;;;;;;19.15;12.28;;;;;;;21.46;74.29;99813.53;1984522;89;27623;-68
2022/08/20 01:06:23;;;;;;;14.70;11.70;;;;;;;21.43;74.48;99817.94;1984648;89;28673;-68
2022/08/20 01:09:26;;;;;;;19.98;12.55;;;;;;;21.40;74.78;99823.20;1984344;89;31086;-68
2022/08/20 01:12:29;;;;;;;20.77;12.03;;;;;;;21.38;75.17;99827.11;1984051;89;32999;-67
2022/08/20 01:15:34;;;;;;;18.15;12.53;;;;;;;21.35;75.37;99835.60;1981200;89;29335;-68
2022/08/20 01:18:38;;;;;;;16.65;11.95;;;;;;;21.32;75.53;99835.42;1984470;89;27765;-68
2022/08/20 01:21:39;;;;;;;16.30;12.30;;;;;;;21.30;75.66;99839.30;1984323;89;28722;-67
2022/08/20 01:24:42;;;;;;;17.55;11.97;;;;;;;21.21;75.67;99831.06;1984472;89;31034;-67
2022/08/20 01:27:45;;;;;;;22.65;12.63;;;;;;;21.29;75.72;99840.30;1984606;89;33000;-67
2022/08/20 01:30:47;;;;;;;21.23;12.05;;;;;;;21.27;75.80;99841.84;1984511;89;29481;-68
2022/08/20 01:33:52;;;;;;;15.15;11.65;;;;;;;21.26;76.00;99834.67;1984552;89;27684;-69
2022/08/20 01:36:57;;;;;;;17.40;13.05;;;;;;;21.25;76.10;99817.48;1984432;89;29945;-68
2022/08/20 01:40:01;;;;;;;21.45;13.93;;;;;;;21.23;76.17;99815.42;1984584;89;31114;-68
2022/08/20 01:43:05;;;;;;;20.45;13.00;;;;;;;21.21;76.19;99816.57;1984188;89;33128;-69
2022/08/20 01:46:07;;;;;;;17.17;13.30;;;;;;;21.17;76.16;99809.23;1984953;89;29511;-68
2022/08/20 01:49:22;;;;;;;27.50;13.48;;;;;;;21.15;76.29;99800.88;1984537;89;27827;-69
2022/08/20 01:53:05;;;;;;;18.27;13.05;;;;;;;21.12;76.42;99800.67;1984020;89;28769;-67
2022/08/20 01:56:13;;;;;;;18.32;13.62;;;;;;;21.09;76.45;99803.73;1984421;89;31030;-67
2022/08/20 01:59:21;;;;;;;17.05;13.72;;;;;;;21.06;76.56;99791.78;1980971;89;32919;-67
2022/08/20 02:02:26;;;;;;;18.62;12.95;;;;;;;21.03;76.65;99788.00;1986296;89;29435;-67
2022/08/20 02:05:32;;;;;;;25.00;14.83;;;;;;;20.99;76.67;99781.16;1987572;89;27519;-67
2022/08/20 02:08:34;;;;;;;19.73;14.10;;;;;;;20.98;76.89;99783.52;1987887;89;28662;-68
2022/08/20 02:11:37;;;;;;;17.87;14.03;;;;;;;20.95;76.97;99792.88;1987877;89;31023;-68
2022/08/20 02:14:52;;;;;;;19.20;15.15;;;;;;;20.91;77.14;99792.34;1987548;89;33072;-68
2022/08/20 02:18:01;;;;;;;20.50;15.48;;;;;;;20.90;77.34;99789.75;1987175;89;27867;-67
2022/08/20 02:21:03;;;;;;;21.02;14.45;;;;;;;20.89;77.61;99783.95;1988094;89;27841;-68
2022/08/20 02:24:06;;;;;;;20.65;14.63;;;;;;;20.87;77.70;99789.57;1987935;89;28689;-67
2022/08/20 02:27:09;;;;;;;19.27;14.80;;;;;;;20.86;77.64;99785.63;1987741;89;31194;-67
2022/08/20 02:30:21;;;;;;;19.70;14.63;;;;;;;20.85;77.78;99779.34;1982991;89;33046;-68
2022/08/20 02:33:31;;;;;;;21.95;15.20;;;;;;;20.84;77.85;99782.23;1983347;89;29703;-67
2022/08/20 02:36:37;;;;;;;27.30;16.37;;;;;;;20.83;78.21;99781.88;1987589;89;46142;-68
2022/08/20 02:39:39;;;;;;;18.62;16.50;;;;;;;20.82;78.81;99766.55;1987614;89;28764;-67
2022/08/20 02:42:45;;;;;;;24.02;16.87;;;;;;;20.81;78.71;99758.03;1983268;89;31108;-67
2022/08/20 02:45:54;;;;;;;23.07;17.50;;;;;;;20.79;78.74;99754.95;1983362;89;32970;-67
2022/08/20 02:48:57;;;;;;;25.32;16.75;;;;;;;20.78;78.91;99754.61;1987814;88;29339;-68
2022/08/20 02:51:59;;;;;;;19.77;16.37;;;;;;;20.78;78.91;99755.09;1987366;89;27672;-67
2022/08/20 02:55:03;;;;;;;18.92;15.88;;;;;;;20.78;78.92;99755.97;1987641;89;28657;-69
2022/08/20 02:58:05;;;;;;;22.40;15.53;;;;;;;20.79;78.96;99751.36;1965172;89;31044;-68
2022/08/20 03:01:12;;;;;;;16.80;14.50;;;;;;;20.79;78.98;99745.43;1990215;88;33042;-68
2022/08/20 03:04:16;;;;;;;19.67;14.95;;;;;;;20.79;78.99;99747.28;1984205;89;29413;-66
2022/08/20 03:07:26;;;;;;;19.17;15.53;;;;;;;20.80;78.99;99747.63;1980059;89;27938;-68
2022/08/20 03:10:34;;;;;;;21.00;14.30;;;;;;;20.77;79.03;99733.84;1985105;89;28676;-68
2022/08/20 03:13:36;;;;;;;17.57;14.90;;;;;;;20.77;78.97;99722.95;1984316;89;32047;-67
2022/08/20 03:16:38;;;;;;;19.70;15.88;;;;;;;20.77;79.13;99730.24;1984353;89;33785;-67
2022/08/20 03:19:40;;;;;;;21.23;14.50;;;;;;;20.76;79.06;99722.59;1984290;89;29319;-67
2022/08/20 03:22:42;;;;;;;20.43;15.43;;;;;;;20.75;79.14;99721.38;1985591;89;27733;-67
2022/08/20 03:25:46;;;;;;;20.45;14.85;;;;;;;20.76;79.15;99743.02;1984080;89;28726;-67
2022/08/20 03:28:56;;;;;;;19.73;15.08;;;;;;;20.74;79.17;99759.97;1979745;89;28001;-66
2022/08/20 03:32:03;;;;;;;19.37;14.47;;;;;;;20.74;79.26;99783.62;1979314;89;34222;-66
2022/08/20 03:35:09;;;;;;;19.62;15.40;;;;;;;20.74;79.32;99798.60;1984167;89;29338;-66
2022/08/20 03:38:15;;;;;;;20.27;15.48;;;;;;;20.73;79.34;99795.01;1980120;89;27875;-67
2022/08/20 03:41:17;;;;;;;18.25;15.53;;;;;;;20.74;79.34;99798.60;1984508;89;28737;-67
2022/08/20 03:44:19;;;;;;;22.13;17.27;;;;;;;20.74;79.36;99802.69;1984537;89;30662;-66
2022/08/20 03:47:22;;;;;;;22.73;19.17;;;;;;;20.73;79.27;99798.25;1984456;89;32956;-68
2022/08/20 03:50:27;;;;;;;21.97;18.82;;;;;;;20.70;79.18;99780.34;1984559;89;29313;-67
2022/08/20 03:53:30;;;;;;;20.50;17.40;;;;;;;20.69;79.28;99780.51;1984576;89;27663;-67
2022/08/20 03:56:32;;;;;;;23.30;17.37;;;;;;;20.68;79.26;99776.95;1984543;89;28642;-68
2022/08/20 03:59:33;;;;;;;21.93;17.12;;;;;;;20.67;79.32;99771.15;1984617;89;31003;-68
2022/08/20 04:02:35;;;;;;;23.35;18.45;;;;;;;20.68;79.34;99767.91;1985777;89;32941;-67
2022/08/20 04:05:39;;;;;;;24.10;19.50;;;;;;;20.68;79.41;99761.98;1987812;89;29384;-67
2022/08/20 04:08:42;;;;;;;27.93;20.30;;;;;;;20.69;79.49;99763.66;1987891;89;27690;-67
2022/08/20 04:11:44;;;;;;;28.98;20.57;;;;;;;20.71;79.55;99763.00;1969808;89;28753;-67
2022/08/20 04:14:45;;;;;;;32.45;27.42;;;;;;;20.72;79.58;99766.59;1987776;89;31014;-68
2022/08/20 04:17:49;;;;;;;36.68;28.70;;;;;;;20.75;79.71;99769.02;1987766;89;32939;-67
2022/08/20 04:20:53;;;;;;;38.25;30.85;;;;;;;20.75;79.70;99760.36;1987608;89;29390;-68
2022/08/20 04:23:55;;;;;;;32.17;28.38;;;;;;;20.76;79.74;99764.79;1987953;89;27671;-68
2022/08/20 04:26:58;;;;;;;35.95;29.90;;;;;;;20.75;79.73;99764.92;1988043;89;28656;-68
2022/08/20 04:30:04;;;;;;;35.92;29.63;;;;;;;20.79;79.77;99773.14;1987744;89;31100;-68
2022/08/20 04:33:06;;;;;;;33.28;28.52;;;;;;;20.80;79.81;99781.66;1987849;89;32973;-68
2022/08/20 04:36:08;;;;;;;31.68;25.55;;;;;;;20.82;79.87;99781.00;1987419;89;29314;-70
2022/08/20 04:39:10;;;;;;;24.27;19.65;;;;;;;20.85;79.91;99799.75;1987606;89;27695;-67
2022/08/20 04:42:14;;;;;;;22.82;17.62;;;;;;;20.85;80.05;99805.72;1987405;89;29462;-69
2022/08/20 04:45:17;;;;;;;22.22;16.40;;;;;;;20.92;80.07;99811.75;1969850;89;31051;-69
2022/08/20 04:48:22;;;;;;;25.60;17.57;;;;;;;20.97;80.10;99814.00;1990670;88;33606;-70
2022/08/20 04:51:24;;;;;;;23.42;17.52;;;;;;;21.04;80.07;99808.78;1987894;89;30373;-70
2022/08/20 04:54:26;;;;;;;23.92;16.55;;;;;;;21.09;80.04;99800.48;1988049;89;27871;-70
2022/08/20 04:57:29;;;;;;;28.05;15.88;;;;;;;;;;1990639;88;28631;-71
2022/08/20 05:00:31;;;;;;;19.20;14.73;;;;;;;21.19;79.91;99806.34;1987690;89;31067;-71
2022/08/20 05:03:33;;;;;;;20.48;15.23;;;;;;;21.22;79.80;99809.63;1985281;87;32943;-70
2022/08/20 05:06:36;;;;;;;23.12;13.98;;;;;;;21.28;79.79;99820.39;1984400;89;29366;-68
2022/08/20 05:09:39;;;;;;;19.40;13.80;;;;;;;21.32;79.69;99814.98;1984295;89;27571;-71
2022/08/20 05:12:42;;;;;;;19.45;13.48;;;;;;;21.36;79.65;99808.70;1985993;89;28670;-72
2022/08/20 05:15:47;;;;;;;20.65;14.47;;;;;;;21.38;79.46;99803.95;1984854;89;31050;-71
2022/08/20 05:18:50;;;;;;;31.35;25.20;;;;;;;21.39;79.43;99811.95;1984770;89;33005;-71
2022/08/20 05:21:52;;;;;;;24.02;16.87;;;;;;;21.44;79.52;99821.02;1985114;89;29335;-72
2022/08/20 05:24:55;;;;;;;21.05;14.30;;;;;;;21.54;79.72;99823.15;1984941;89;27708;-71
2022/08/20 05:28:08;;;;;;;22.22;14.03;;;;;;;21.63;79.64;99806.86;1984592;89;28714;-71
2022/08/20 05:31:09;;;;;;;20.57;12.98;;;;;;;21.74;79.56;99798.44;1984712;89;31230;-71
2022/08/20 05:34:12;;;;;;;25.12;18.25;;;;;;;21.85;79.37;99802.73;1984771;89;33030;-71
2022/08/20 05:37:16;;;;;;;31.40;19.73;;;;;;;21.95;79.17;99810.80;1986572;89;29232;-70
2022/08/20 05:40:18;;;;;;;22.75;17.70;;;;;;;22.04;78.99;99800.30;1985152;89;27658;-72
2022/08/20 05:43:21;;;;;;;21.45;17.77;;;;;;;22.16;78.98;99794.88;1984811;89;28661;-71
2022/08/20 05:46:23;;;;;;;27.85;18.15;;;;;;;22.34;78.91;99788.47;1984803;89;31028;-72
2022/08/20 05:49:25;;;;;;;25.95;19.02;;;;;;;22.53;78.74;99785.98;1984659;89;32935;-72
2022/08/20 05:52:28;;;;;;;28.47;23.12;;;;;;;22.75;78.60;99794.04;1965139;89;30965;-72
2022/08/20 05:55:30;;;;;;;33.00;27.15;;;;;;;22.97;78.25;99799.05;1984874;89;27455;-72
2022/08/20 05:58:32;;;;;;;32.78;29.23;;;;;;;23.14;77.73;99793.05;1984732;89;28769;-71
2022/08/20 06:01:37;;;;;;;43.68;34.18;;;;;;;23.32;77.54;99799.23;1984778;89;31099;-70
2022/08/20 06:04:39;;;;;;;;;;;;;;;23.52;77.23;99809.28;1988191;89;33038;-71
2022/08/20 06:07:41;;;;;;;40.98;35.68;;;;;;;23.67;76.62;99804.47;1984485;89;29455;-69
2022/08/20 06:10:43;;;;;;;49.25;39.23;;;;;;;23.75;76.19;99799.00;1984758;89;27565;-70
2022/08/20 06:13:45;;;;;;;48.80;38.42;;;;;;;23.95;76.29;99797.23;1984804;89;28710;-71
2022/08/20 06:16:47;;;;;;;51.23;41.05;;;;;;;24.11;75.66;99799.95;1984765;89;31194;-72
2022/08/20 06:19:50;;;;;;;52.10;41.00;;;;;;;24.16;75.21;99806.78;1984629;89;33083;-72
2022/08/20 06:22:52;;;;;;;50.92;38.13;;;;;;;24.16;74.92;99806.25;1985656;89;29498;-73
2022/08/20 06:25:54;;;;;;;51.10;39.90;;;;;;;24.20;74.60;99806.74;1984288;89;27933;-71
2022/08/20 06:28:58;;;;;;;46.77;38.92;;;;;;;24.21;74.33;99804.34;1984236;89;28470;-72
2022/08/20 06:32:03;;;;;;;45.60;37.15;;;;;;;24.21;74.02;99805.22;1961982;89;33230;-71
2022/08/20 06:35:08;;;;;;;48.17;37.35;;;;;;;24.21;73.89;99804.34;1984303;89;32980;-71
2022/08/20 06:38:11;;;;;;;42.65;36.00;;;;;;;24.27;73.66;99811.86;1984683;89;29342;-70
2022/08/20 06:41:13;;;;;;;41.42;35.75;;;;;;;24.35;73.61;99813.17;1984673;89;27795;-70
2022/08/20 06:44:16;;;;;;;47.15;35.30;;;;;;;24.42;73.44;99810.58;1984384;89;28819;-71
2022/08/20 06:47:20;;;;;;;46.08;34.90;;;;;;;24.48;73.18;99812.61;1983495;89;31065;-70
2022/08/20 06:50:30;;;;;;;44.10;34.53;;;;;;;24.50;72.88;99810.55;1984992;89;35459;-70
2022/08/20 06:53:32;;;;;;;43.48;35.23;;;;;;;24.54;72.77;99811.90;1964791;89;29271;-70
2022/08/20 06:56:34;;;;;;;45.45;36.10;;;;;;;24.55;72.46;99820.95;1993003;89;27593;-71
2022/08/20 06:59:38;;;;;;;45.35;34.83;;;;;;;24.55;72.38;99819.58;1985904;89;28619;-70
2022/08/20 07:02:40;;;;;;;42.78;34.08;;;;;;;24.55;72.24;99826.43;1984227;89;31088;-71
2022/08/20 07:05:44;;;;;;;42.95;36.30;;;;;;;24.53;72.10;99825.75;1984557;89;32972;-70
2022/08/20 07:08:46;;;;;;;49.33;37.20;;;;;;;24.47;71.79;99816.38;1984759;89;29417;-71
2022/08/20 07:11:48;;;;;;;45.08;38.15;;;;;;;24.42;71.69;99818.78;1984475;89;27900;-71
2022/08/20 07:14:50;;;;;;;49.15;39.98;;;;;;;24.38;71.69;99822.94;1984627;89;28641;-71
2022/08/20 07:17:56;;;;;;;50.05;37.25;;;;;;;24.34;71.67;99825.16;1984640;89;30978;-70
2022/08/20 07:20:58;;;;;;;47.67;38.60;;;;;;;24.30;71.65;99822.45;1984715;89;33062;-70
2022/08/20 07:24:00;;;;;;;43.35;36.48;;;;;;;24.32;71.79;99817.66;1984864;89;29324;-70
2022/08/20 07:27:03;;;;;;;44.60;36.33;;;;;;;24.38;71.74;99821.56;1984870;89;27932;-70
2022/08/20 07:33:30;;;;;;;41.33;34.95;;;;;;;24.60;71.75;99809.45;1984578;89;31043;-71
2022/08/20 07:36:32;;;;;;;43.02;34.63;;;;;;;24.77;71.71;99808.35;1984859;89;32972;-71
2022/08/20 07:39:35;;;;;;;51.20;36.58;;;;;;;24.90;71.32;99810.50;1984835;89;29304;-71
2022/08/20 07:42:38;;;;;;;41.13;34.78;;;;;;;25.03;70.88;99815.38;1962621;89;27917;-71
2022/08/20 07:45:40;;;;;;;39.75;33.85;;;;;;;25.15;70.86;99828.98;1984462;89;28719;-71
2022/08/20 07:48:48;;;;;;;45.50;35.03;;;;;;;25.36;70.98;99820.59;1984553;89;31002;-71
2022/08/20 07:51:50;;;;;;;41.68;33.55;;;;;;;25.54;70.42;99823.55;1984677;89;32944;-70
2022/08/20 07:54:52;;;;;;;40.25;32.38;;;;;;;25.72;69.82;99821.32;1984816;89;29275;-71
2022/08/20 07:57:54;;;;;;;36.45;31.15;;;;;;;25.98;69.78;99820.00;1962528;89;27856;-70
2022/08/20 08:00:56;;;;;;;42.10;34.35;;;;;;;26.21;69.26;99822.67;1984788;89;28665;-71
2022/08/20 08:03:59;;;;;;;37.98;31.57;;;;;;;26.41;68.90;99823.96;1975854;86;30943;-71
2022/08/20 08:07:01;;;;;;;39.25;33.70;;;;;;;26.53;68.40;99826.03;1932068;92;33013;-71
2022/08/20 08:10:07;;;;;;;41.70;34.70;;;;;;;26.61;68.05;99826.44;1963778;90;29361;-72
2022/08/20 08:13:11;;;;;;;40.78;34.25;;;;;;;26.60;67.57;99823.36;1932851;91;27920;-71
2022/08/20 08:16:13;;;;;;;;;;;;;;;26.58;67.41;99829.56;1973377;89;28536;-70
2022/08/20 08:19:19;;;;;;;43.65;35.50;;;;;;;26.62;67.11;99837.76;1993189;89;31237;-70
2022/08/20 08:22:21;;;;;;;47.27;38.95;;;;;;;26.57;66.88;99838.02;1975018;88;34441;-71
2022/08/20 08:25:23;;;;;;;36.80;32.67;;;;;;;26.56;66.82;99844.02;1993625;89;29335;-71
2022/08/20 08:28:27;;;;;;;39.10;34.58;;;;;;;26.57;66.86;99843.51;1993946;89;27736;-71
2022/08/20 08:31:28;;;;;;;40.67;33.30;;;;;;;26.65;66.65;99850.25;1993798;89;28679;-70
2022/08/20 08:34:33;;;;;;;34.88;31.17;;;;;;;26.76;66.13;99846.16;1993891;89;31061;-71
2022/08/20 08:37:36;;;;;;;30.77;26.62;;;;;;;26.86;65.94;99849.49;1975303;89;34500;-70
2022/08/20 08:40:39;;;;;;;35.43;29.20;;;;;;;27.04;66.00;99840.79;1997065;88;29580;-71
2022/08/20 08:43:41;;;;;;;38.35;30.85;;;;;;;27.37;65.69;99839.42;1993979;88;27656;-70
2022/08/20 08:46:48;;;;;;;43.20;35.23;;;;;;;27.62;65.07;99841.77;1993788;88;28658;-71
2022/08/20 08:49:50;;;;;;;35.70;31.55;;;;;;;27.66;64.07;99828.77;1994012;88;33332;-69
2022/08/20 08:52:58;;;;;;;29.35;23.20;;;;;;;27.73;64.09;99837.07;1993911;89;33056;-67
2022/08/20 08:56:00;;;;;;;34.73;30.08;;;;;;;28.03;63.69;99839.63;1993786;88;29585;-69
2022/08/20 08:59:11;;;;;;;39.60;31.60;;;;;;;28.17;63.53;99822.16;1994191;89;27621;-69
2022/08/20 09:02:21;;;;;;;30.35;27.00;;;;;;;28.43;62.96;99830.75;1993771;89;28675;-68
2022/08/20 09:05:30;;;;;;;31.27;27.80;;;;;;;28.61;62.47;99823.28;1992077;87;31134;-68
2022/08/20 09:08:45;;;;;;;31.15;26.70;;;;;;;28.82;61.88;99827.83;1992583;89;33066;-70
2022/08/20 09:11:53;;;;;;;33.13;28.73;;;;;;;29.15;61.07;99834.48;1997534;88;29474;-71
2022/08/20 09:14:55;;;;;;;34.43;30.57;;;;;;;29.53;60.82;99833.91;1992610;89;27726;-70
2022/08/20 09:17:57;;;;;;;38.85;30.20;;;;;;;29.59;59.17;99834.41;1998164;89;28672;-70
2022/08/20 09:20:59;;;;;;;31.50;28.17;;;;;;;29.49;59.54;99834.84;1959611;90;31038;-69
2022/08/20 09:24:03;;;;;;;33.05;27.05;;;;;;;29.49;59.23;99840.91;1992219;89;33054;-70
2022/08/20 09:27:05;;;;;;;30.88;27.22;;;;;;;29.55;59.44;99831.75;1992682;89;29326;-70
2022/08/20 09:30:10;;;;;;;27.50;24.18;;;;;;;29.78;59.60;99829.95;1992577;89;27612;-70
2022/08/20 09:33:13;;;;;;;32.85;29.15;;;;;;;30.08;59.04;99831.39;1992421;89;28650;-70
2022/08/20 09:36:15;;;;;;;37.20;30.85;;;;;;;30.27;58.10;99831.88;1992129;89;31131;-68
2022/08/20 09:39:18;;;;;;;36.30;28.52;;;;;;;30.24;57.50;99837.00;1992155;89;33088;-68
2022/08/20 09:42:25;;;;;;;31.33;28.07;;;;;;;30.04;57.14;99835.13;1995501;89;29680;-68
2022/08/20 09:45:29;;;;;;;33.85;30.10;;;;;;;30.05;56.83;99827.16;1992242;89;27910;-69
2022/08/20 09:48:31;;;;;;;33.00;29.48;;;;;;;30.13;57.01;99826.91;1992409;89;28660;-70
2022/08/20 09:51:33;;;;;;;32.63;29.27;;;;;;;30.08;56.00;99831.39;1992433;89;30968;-70
2022/08/20 09:54:37;;;;;;;32.42;27.55;;;;;;;29.86;56.09;99831.64;1992370;89;32930;-72
2022/08/20 09:57:39;;;;;;;30.27;26.90;;;;;;;29.80;56.29;99829.19;1992207;89;29388;-72
2022/08/20 10:00:42;;;;;;;25.57;22.58;;;;;;;29.70;56.28;99834.30;1992444;89;27636;-70
2022/08/20 10:03:49;;;;;;;30.10;26.85;;;;;;;29.64;55.73;99835.14;1987675;89;28656;-70
2022/08/20 10:06:51;;;;;;;30.50;25.97;;;;;;;29.64;56.13;99831.88;1945357;91;31219;-73
2022/08/20 10:09:54;;;;;;;31.50;26.35;;;;;;;29.63;56.02;99837.59;1945396;91;33024;-69
2022/08/20 10:12:56;;;;;;;31.35;28.10;;;;;;;29.64;55.93;99834.63;1945292;90;29338;-70
2022/08/20 10:15:59;;;;;;;36.48;26.87;;;;;;;29.71;55.89;99828.55;1945361;91;27821;-71
2022/08/20 10:19:03;;;;;;;31.12;27.02;;;;;;;29.77;55.95;99826.88;1945984;91;28693;-72
2022/08/20 10:22:06;;;;;;;29.23;25.80;;;;;;;29.82;55.92;99829.82;1944928;90;31174;-72
2022/08/20 10:25:09;;;;;;;34.45;29.20;;;;;;;29.79;55.75;99828.86;1949927;91;32873;-72
2022/08/20 10:28:11;;;;;;;32.03;28.60;;;;;;;29.76;55.46;99832.59;1926462;91;29340;-71
2022/08/20 10:31:14;;;;;;;33.00;25.97;;;;;;;29.69;55.48;99836.75;1945013;90;27813;-72
2022/08/20 10:34:18;;;;;;;30.50;26.37;;;;;;;29.66;55.54;99833.02;1946031;90;28726;-69
2022/08/20 10:37:23;;;;;;;29.10;26.02;;;;;;;29.53;55.32;99831.98;1926086;91;31110;-70
2022/08/20 10:40:26;;;;;;;29.57;26.52;;;;;;;29.47;55.61;99828.67;1944310;91;34055;-71
2022/08/20 10:43:29;;;;;;;32.78;29.40;;;;;;;29.33;55.13;99830.58;1944380;91;29570;-70
2022/08/20 10:46:31;;;;;;;34.15;28.00;;;;;;;29.17;55.04;99840.64;1944017;91;27697;-70
2022/08/20 10:49:41;;;;;;;32.58;26.35;;;;;;;29.04;54.78;99838.16;1945115;90;28707;-69
2022/08/20 10:52:39;;;;;;;35.85;29.82;;;;;;;28.88;55.20;99837.16;1944138;90;31107;-70
2022/08/20 10:55:41;;;;;;;32.77;29.20;;;;;;;28.75;55.61;99840.76;1945677;90;32963;-73
2022/08/20 10:58:43;;;;;;;33.63;28.65;;;;;;;28.65;55.77;99839.19;1944579;90;29302;-69
2022/08/20 11:01:46;;;;;;;34.50;28.52;;;;;;;28.48;55.51;99837.34;1925597;91;28085;-69
2022/08/20 11:04:51;;;;;;;32.55;27.25;;;;;;;28.41;56.17;99839.75;1950629;88;28676;-70
2022/08/20 11:07:53;;;;;;;32.17;28.32;;;;;;;28.49;56.24;99843.69;2004066;87;31125;-70
2022/08/20 11:10:56;;;;;;;31.65;26.33;;;;;;;28.57;56.46;99838.02;2004375;88;33087;-70
2022/08/20 11:13:58;;;;;;;39.53;29.70;;;;;;;28.71;56.83;99840.81;2004229;88;29335;-70
2022/08/20 11:17:02;;;;;;;32.03;27.40;;;;;;;28.78;55.96;99837.59;2004366;88;27932;-69
2022/08/20 11:20:09;;;;;;;31.23;27.75;;;;;;;28.73;56.06;99836.81;2004720;88;27930;-68
2022/08/20 11:23:11;;;;;;;31.57;26.82;;;;;;;28.66;56.12;99836.76;1979035;88;32251;-69
2022/08/20 11:26:19;;;;;;;30.20;27.00;;;;;;;28.68;56.11;99834.33;2004493;88;32981;-69
2022/08/20 11:29:23;;;;;;;35.30;27.95;;;;;;;28.65;55.76;99829.55;2002306;88;29422;-71
2022/08/20 11:32:26;;;;;;;31.48;27.07;;;;;;;28.57;55.58;99828.36;2005042;88;27650;-68
2022/08/20 11:35:31;;;;;;;37.23;32.65;;;;;;;28.54;55.64;99827.94;2004499;88;28671;-70
2022/08/20 11:38:35;;;;;;;29.63;25.75;;;;;;;28.51;56.00;99826.42;2004064;88;28637;-69
2022/08/20 11:41:37;;;;;;;30.80;25.62;;;;;;;28.50;56.21;99826.09;1979040;88;33022;-69
2022/08/20 11:44:39;;;;;;;32.10;26.97;;;;;;;28.44;55.93;99828.32;2005629;88;29327;-68
2022/08/20 11:47:42;;;;;;;30.80;26.33;;;;;;;28.35;55.86;99831.23;2005227;88;27815;-69
2022/08/20 11:50:45;;;;;;;29.23;26.05;;;;;;;28.27;55.95;99828.67;2004424;88;28689;-68
2022/08/20 11:53:47;;;;;;;29.40;25.77;;;;;;;28.25;55.96;99829.39;2004236;88;31066;-70
2022/08/20 11:56:49;;;;;;;27.80;24.85;;;;;;;28.38;55.97;99822.23;2004555;88;32954;-71
2022/08/20 11:59:52;;;;;;;28.23;25.15;;;;;;;28.40;55.85;99814.08;2005432;88;29313;-69
2022/08/20 12:02:55;;;;;;;31.42;25.37;;;;;;;28.43;55.86;99808.70;2004675;87;27946;-68
2022/08/20 12:06:04;;;;;;;27.80;23.20;;;;;;;28.51;55.64;99809.89;2002595;88;28619;-69
2022/08/20 12:09:08;;;;;;;25.25;22.62;;;;;;;28.55;55.76;99802.91;2004300;88;27862;-69
2022/08/20 12:12:11;;;;;;;25.35;22.75;;;;;;;28.58;55.34;99805.27;2004208;88;33041;-70
2022/08/20 12:15:13;;;;;;;31.82;28.15;;;;;;;28.57;55.07;99799.94;2005628;88;29361;-70
2022/08/20 12:18:15;;;;;;;27.40;23.65;;;;;;;28.57;54.88;99801.31;2004408;88;27820;-70
2022/08/20 12:21:17;;;;;;;25.57;21.95;;;;;;;28.61;55.06;99803.48;2004124;88;28679;-67
2022/08/20 12:24:27;;;;;;;26.05;23.25;;;;;;;28.70;54.96;99799.14;2001496;88;31143;-68
2022/08/20 12:27:35;;;;;;;27.05;22.42;;;;;;;28.80;54.81;99793.58;2002235;88;34210;-69
2022/08/20 12:30:37;;;;;;;26.82;23.90;;;;;;;28.91;54.84;99792.63;2005463;88;29406;-69
2022/08/20 12:33:41;;;;;;;26.12;21.57;;;;;;;28.96;54.22;99790.11;2004126;88;27962;-68
2022/08/20 12:36:44;;;;;;;26.02;22.85;;;;;;;28.81;54.03;99793.03;2004154;88;29161;-69
2022/08/20 12:39:51;;;;;;;23.30;20.88;;;;;;;28.78;53.91;99790.73;2004840;88;31013;-69
2022/08/20 12:42:53;;;;;;;25.55;22.65;;;;;;;28.74;54.05;99792.19;2004729;87;32969;-70
2022/08/20 12:45:55;;;;;;;20.23;17.05;;;;;;;28.64;53.68;99796.14;2004901;88;29316;-69
2022/08/20 12:48:57;;;;;;;29.55;24.43;;;;;;;28.43;53.22;99786.13;2005054;88;27631;-69
2022/08/20 12:51:59;;;;;;;27.25;24.40;;;;;;;28.38;54.28;99784.50;2004637;88;28646;-71
2022/08/20 12:55:02;;;;;;;26.25;22.48;;;;;;;28.28;53.40;99783.54;2004456;88;31019;-70
2022/08/20 12:58:07;;;;;;;29.63;22.80;;;;;;;28.24;54.31;99779.48;2004712;88;33135;-70
2022/08/20 13:01:09;;;;;;;28.83;22.50;;;;;;;28.26;54.32;99780.64;2004621;87;29399;-72
2022/08/20 13:04:12;;;;;;;26.12;22.65;;;;;;;28.25;53.77;99770.68;2004820;88;27179;-71
2022/08/20 13:07:14;;;;;;;25.82;23.12;;;;;;;28.29;54.25;99770.09;2004467;88;28715;-71
2022/08/20 13:13:31;;;;;;;33.48;22.00;;;;;;;28.36;53.39;99770.11;1957208;90;33180;-71
2022/08/20 13:16:33;;;;;;;23.65;21.20;;;;;;;28.27;53.93;99766.69;1957165;90;29497;-71
2022/08/20 13:19:38;;;;;;;22.55;20.23;;;;;;;28.29;54.18;99773.36;1957418;90;27740;-70
2022/08/20 13:22:40;;;;;;;;;;;;;;;28.26;53.38;99766.36;1959741;90;28883;-71
2022/08/20 13:25:42;;;;;;;24.85;20.32;;;;;;;28.17;53.21;99762.94;1930859;90;31092;-69
2022/08/20 13:28:47;;;;;;;23.10;20.40;;;;;;;28.22;53.97;99757.31;1957122;90;32972;-69
2022/08/20 13:31:54;;;;;;;23.40;20.45;;;;;;;28.17;53.62;99753.81;1954224;90;28018;-69
2022/08/20 13:35:02;;;;;;;19.77;15.90;;;;;;;28.11;53.58;99750.52;1953519;90;27986;-69
2022/08/20 13:38:06;;;;;;;23.52;19.20;;;;;;;28.07;53.31;99750.02;1935996;90;30095;-69
2022/08/20 13:41:13;;;;;;;21.48;17.80;;;;;;;28.11;53.91;99745.84;1955464;90;31059;-70
2022/08/20 13:44:21;;;;;;;22.90;17.45;;;;;;;28.12;53.39;99743.41;1953495;90;29810;-71
2022/08/20 13:47:33;;;;;;;23.32;17.95;;;;;;;28.07;53.33;99734.87;1954229;90;29392;-72
2022/08/20 13:50:44;;;;;;;22.13;16.17;;;;;;;28.06;53.32;99735.93;1953996;90;28076;-69
2022/08/20 13:53:53;;;;;;;19.77;16.55;;;;;;;28.10;53.41;99737.26;1953902;90;28063;-68
2022/08/20 13:57:10;;;;;;;20.85;18.62;;;;;;;28.12;53.53;99736.53;1933981;90;31062;-67
2022/08/20 14:00:21;;;;;;;22.65;17.00;;;;;;;28.05;53.59;99736.47;1953765;90;33021;-67
2022/08/20 14:03:29;;;;;;;23.22;18.65;;;;;;;28.03;53.88;99737.74;1953706;90;27935;-70
2022/08/20 14:06:38;;;;;;;23.20;17.65;;;;;;;28.07;53.71;99734.87;1952373;90;27976;-70
2022/08/20 14:09:48;;;;;;;22.20;16.73;;;;;;;28.03;53.70;99730.31;1950740;90;28723;-71
2022/08/20 14:12:57;;;;;;;20.60;15.32;;;;;;;28.05;53.49;99726.83;1950716;90;28164;-72
2022/08/20 14:16:04;;;;;;;19.30;16.12;;;;;;;28.04;53.22;99738.90;1963348;88;33593;-70